Latest Weather Observations for Mount Boyce

IDN60901

Issued at 7:41 pm EST Thursday 2 July 2015 (issued every 10 minutes, with the page automatically refreshed every 10 minutes)

About weather observations | Map of Sydney area stations | Latest observations for Sydney area | Other Formats
Station Details ID: 063292 Name: MOUNT BOYCE AWS Lat: -33.62 Lon: 150.27 Height: 1080.0 m
Data from the previous 72 hours. | See also: Recent months at Mount Boyce
Date/Time
EST
Tmp

°C
App
Tmp
°C
Dew
Point
°C
Rel
Hum
%
Delta-T

°C
Wind Press
QNH
hPa
Press
MSL
hPa
Rain
since
9 am
mm
Dir
 
Spd
km/h
Gust
km/h
Spd
kts
Gust
kts
02/07:30pm 3.1 -5.1 -0.7 76 1.5 WSW 32 44 17 24 - - 0.0
02/07:13pm 3.1 -5.1 -0.7 76 1.5 WSW 32 54 17 29 - - 0.0
02/07:00pm 3.0 -4.8 -0.8 76 1.5 WSW 30 43 16 23 - - 0.0
02/06:30pm 3.4 -4.0 -0.8 74 1.7 WSW 28 41 15 22 - - 0.0
02/06:02pm 3.7 -4.5 -0.7 73 1.7 WSW 32 52 17 28 - - 0.0
02/05:36pm 3.6 -4.5 1.2 84 1.0 WSW 33 52 18 28 - - 0.0
02/05:32pm 3.6 -4.9 1.2 84 1.0 WSW 35 50 19 27 - - 0.0
02/05:30pm 3.6 -4.8 1.3 85 1.0 WSW 35 50 19 27 - - 0.0
02/05:00pm 3.6 -5.6 1.5 86 0.9 WSW 39 61 21 33 - - 0.0
02/04:30pm 4.0 -5.6 1.4 83 1.1 WSW 41 65 22 35 - - 0.0
02/04:00pm 4.1 -4.7 1.6 84 1.1 WSW 37 57 20 31 - - 0.0
02/03:39pm 4.2 -4.5 1.9 85 1.0 WSW 37 57 20 31 - - 0.0
02/03:30pm 4.3 -4.4 2.0 85 1.0 WSW 37 56 20 30 - - 0.0
02/03:00pm 5.4 -1.7 1.5 76 1.7 WSW 28 48 15 26 - - 0.0
02/02:49pm 5.5 -1.6 1.4 75 1.7 WSW 28 50 15 27 - - 0.0
02/02:30pm 5.0 -2.5 1.1 76 1.6 WSW 30 43 16 23 - - 0.0
02/02:00pm 5.3 -3.9 1.1 74 1.8 WSW 39 57 21 31 - - 0.0
02/01:33pm 4.5 -3.7 0.6 76 1.6 WSW 33 52 18 28 - - 0.0
02/01:30pm 4.6 -3.9 0.7 76 1.6 WSW 35 52 19 28 - - 0.0
02/01:00pm 4.6 -5.6 0.7 76 1.6 WSW 44 67 24 36 - - 0.0
02/12:30pm 5.1 -4.6 0.7 73 1.8 WSW 41 59 22 32 - - 0.0
02/12:08pm 4.9 -4.4 0.7 74 1.7 WSW 39 63 21 34 - - 0.0
02/11:36am 4.8 -3.7 0.8 75 1.7 WSW 35 61 19 33 - - 0.0
02/11:30am 4.5 -3.5 0.6 76 1.6 WSW 32 46 17 25 - - 0.0
02/11:16am 3.6 -4.0 0.3 79 1.3 WSW 30 52 16 28 - - 0.0
02/11:00am 3.1 -4.9 0.2 81 1.2 WSW 32 44 17 24 - - 0.0
02/10:58am 3.0 -5.0 0.1 81 1.2 WSW 32 44 17 24 - - 0.0
02/10:30am 2.7 -5.4 -0.1 82 1.1 WSW 32 50 17 27 - - 0.0
02/10:25am 2.7 -5.0 0.1 83 1.0 WSW 30 50 16 27 - - 0.0
02/10:00am 2.3 -4.3 -0.3 83 1.0 WSW 24 39 13 21 - - 0.0
02/09:34am 1.9 -5.8 -0.3 85 0.9 WSW 30 43 16 23 - - 0.0
02/09:30am 1.8 -5.9 -0.3 86 0.8 WSW 30 43 16 23 - - 0.0
02/09:01am 1.3 -6.5 -0.8 86 0.8 WSW 30 48 16 26 - - 0.0
02/09:00am 1.3 -6.5 -0.8 86 0.8 WSW 30 46 16 25 - - 0.0
02/08:30am 1.0 -5.7 -0.9 87 0.7 W 24 43 13 23 - - 0.0
02/08:00am 0.6 -6.1 -1.2 88 0.7 W 24 35 13 19 - - 0.0
02/07:30am 0.6 -5.7 -1.3 87 0.8 W 22 30 12 16 - - 0.0
02/07:00am 0.5 -5.9 -1.6 86 0.8 W 22 33 12 18 - - 0.0
02/06:30am 0.4 -5.6 -1.8 85 0.8 W 20 30 11 16 - - 0.0
02/06:00am 0.4 -6.4 -2.0 84 0.9 W 24 35 13 19 - - 0.0
02/05:30am 0.2 -7.0 -2.2 84 0.9 W 26 37 14 20 - - 0.0
02/05:00am 0.1 -7.1 -2.1 85 0.8 W 26 35 14 19 - - 0.0
02/04:30am 0.0 -7.6 -2.2 85 0.8 W 28 35 15 19 - - 0.0
02/04:00am -0.3 -7.5 -2.0 88 0.6 W 26 35 14 19 - - 0.0
02/03:30am -0.7 -8.3 -2.0 91 0.4 W 28 43 15 23 - - 0.0
02/03:00am -0.6 -7.4 -2.0 90 0.5 W 24 33 13 18 - - 0.0
02/02:30am -0.8 -7.3 -2.1 91 0.4 W 22 30 12 16 - - 0.0
02/02:00am -0.8 -8.0 -1.9 92 0.4 W 26 32 14 17 - - 0.0
02/01:30am -0.9 -8.1 -1.9 93 0.3 W 26 32 14 17 - - 0.0
02/01:00am -0.8 -8.7 -1.8 93 0.3 W 30 37 16 20 - - 0.0
02/12:30am -0.9 -8.5 -1.9 93 0.3 W 28 39 15 21 - - 0.0
 
Date/Time
EST
Tmp

°C
App
Tmp
°C
Dew
Point
°C
Rel
Hum
%
Delta-T

°C
Wind Press
QNH
hPa
Press
MSL
hPa
Rain
since
9 am
mm
Dir
 
Spd
km/h
Gust
km/h
Spd
kts
Gust
kts
01/11:30pm -0.1 -6.0 -2.2 86 0.8 W 19 26 10 14 - - 0.0
01/11:00pm 0.4 -5.6 -1.8 85 0.8 W 20 26 11 14 - - 0.0
01/10:30pm 0.4 -5.4 -1.3 88 0.7 W 19 24 10 13 - - 0.0
01/10:00pm 1.2 -5.2 -1.4 83 1.0 W 22 30 12 16 - - 0.0
01/09:30pm 1.6 -4.4 -1.3 81 1.1 W 20 28 11 15 - - 0.0
01/09:00pm 1.8 -3.1 -0.8 83 1.0 W 15 20 8 11 - - 0.0
01/08:30pm 1.9 -2.6 -0.3 85 0.9 W 13 17 7 9 - - 0.0
01/08:00pm 2.7 -2.5 -0.1 82 1.1 W 17 22 9 12 - - 0.0
01/07:30pm 3.2 -2.0 0.3 81 1.2 W 17 24 9 13 - - 0.0
01/07:00pm 3.4 -1.4 -0.1 78 1.4 W 15 20 8 11 - - 0.0
01/06:30pm 3.6 -0.8 0.1 78 1.4 W 13 19 7 10 - - 0.0
01/06:00pm 3.9 -0.5 0.1 76 1.5 WNW 13 19 7 10 - - 0.0
01/05:30pm 4.1 0.4 0.1 75 1.6 WNW 9 15 5 8 - - 0.0
01/05:00pm 5.2 2.0 0.6 72 1.9 WNW 7 11 4 6 - - 0.0
01/04:30pm 6.7 3.2 1.0 67 2.4 W 9 15 5 8 - - 0.0
01/04:00pm 7.6 2.9 0.8 62 2.9 W 15 22 8 12 - - 0.0
01/03:30pm 8.9 4.5 0.6 56 3.6 W 13 20 7 11 - - 0.0
01/03:00pm 9.1 4.5 -1.3 48 4.3 W 13 20 7 11 - - 0.0
01/02:30pm 9.0 3.9 -2.3 45 4.6 W 15 22 8 12 - - 0.0
01/02:00pm 9.4 5.0 0.1 52 4.0 W 13 20 7 11 - - 0.0
01/01:30pm 8.9 4.5 0.4 55 3.7 W 13 19 7 10 - - 0.0
01/01:00pm 7.6 2.3 -0.6 56 3.4 W 17 24 9 13 - - 0.0
01/12:30pm 7.2 1.3 -1.0 56 3.4 W 20 30 11 16 - - 0.0
01/12:00pm 7.2 2.2 1.5 67 2.5 W 17 22 9 12 - - 0.0
01/11:30am 6.8 2.3 1.9 71 2.1 W 15 24 8 13 - - 0.0
01/11:00am 6.3 2.6 2.6 77 1.6 W 11 17 6 9 - - 0.0
01/10:30am 5.8 1.0 2.6 80 1.4 W 17 22 9 12 - - 0.0
01/10:00am 5.3 0.8 2.3 81 1.3 W 15 22 8 12 - - 0.0
01/09:30am 5.0 0.1 1.8 80 1.4 W 17 20 9 11 - - 0.0
01/09:00am 4.7 0.2 2.4 85 1.0 W 15 19 8 10 - - 0.0
01/08:30am 4.5 1.2 2.5 87 0.9 WNW 9 15 5 8 - - 0.0
01/08:00am 3.7 0.0 2.5 92 0.5 W 11 13 6 7 - - 0.0
01/07:47am 4.1 0.1 2.8 91 0.6 W 13 17 7 9 - - 0.0
01/07:30am 4.1 0.5 2.8 91 0.6 W 11 17 6 9 - - 0.0
01/07:00am 4.3 0.8 3.4 94 0.4 W 11 15 6 8 - - 0.0
01/06:56am 4.2 0.7 3.3 94 0.4 W 11 15 6 8 - - 0.0
01/06:52am 3.9 0.3 3.0 94 0.4 W 11 15 6 8 - - 0.0
01/06:30am 4.1 0.5 3.1 93 0.4 W 11 13 6 7 - - 0.0
01/06:17am 4.0 0.8 3.0 93 0.4 W 9 13 5 7 - - 0.0
01/06:00am 4.0 0.4 2.8 92 0.5 W 11 15 6 8 - - 0.0
01/05:30am 4.5 0.9 2.8 89 0.7 W 11 15 6 8 - - 0.0
01/05:00am 4.6 1.0 2.8 88 0.8 W 11 15 6 8 - - 0.0
01/04:30am 5.2 1.2 2.9 85 1.0 WNW 13 19 7 10 - - 0.0
01/04:00am 5.0 0.6 2.5 84 1.1 W 15 20 8 11 - - 0.0
01/03:30am 5.1 0.7 2.8 85 1.0 W 15 20 8 11 - - 0.0
01/03:00am 5.4 1.1 3.3 86 0.9 WNW 15 20 8 11 - - 0.0
01/02:30am 5.2 0.9 3.4 88 0.8 W 15 20 8 11 - - 0.0
01/02:00am 5.5 1.3 3.8 89 0.8 W 15 24 8 13 - - 0.0
01/01:30am 5.5 0.9 3.8 89 0.8 W 17 22 9 12 - - 0.0
01/01:00am 5.8 1.6 4.0 88 0.8 W 15 20 8 11 - - 0.0
01/12:52am 5.8 2.0 4.1 89 0.8 W 13 17 7 9 - - 0.0
01/12:37am 6.0 1.5 4.3 89 0.8 W 17 26 9 14 - - 0.0
01/12:30am 6.0 1.1 4.3 89 0.8 W 19 24 10 13 - - 0.0
01/12:00am 6.2 1.8 4.5 89 0.8 W 17 26 9 14 - - 0.0
 
Date/Time
EST
Tmp

°C
App
Tmp
°C
Dew
Point
°C
Rel
Hum
%
Delta-T

°C
Wind Press
QNH
hPa
Press
MSL
hPa
Rain
since
9 am
mm
Dir
 
Spd
km/h
Gust
km/h
Spd
kts
Gust
kts
30/11:30pm 6.3 2.2 4.6 89 0.8 WNW 15 22 8 12 - - 0.0
30/11:00pm 6.3 2.7 4.8 90 0.7 WNW 13 19 7 10 - - 0.0
30/10:30pm 6.5 2.5 4.7 88 0.8 W 15 19 8 10 - - 0.0
30/10:00pm 6.6 2.5 4.6 87 0.9 WNW 15 20 8 11 - - 0.0
30/09:30pm 6.8 3.1 4.5 85 1.1 WNW 13 19 7 10 - - 0.0
30/09:00pm 7.1 3.3 4.1 81 1.4 W 13 19 7 10 - - 0.0
30/08:30pm 7.4 3.5 3.3 75 1.9 WSW 13 17 7 9 - - 0.0
30/08:00pm 8.2 3.5 3.3 71 2.2 W 17 24 9 13 - - 0.0
30/07:30pm 8.5 3.4 2.9 68 2.5 W 19 26 10 14 - - 0.0
30/07:00pm 8.6 4.6 3.0 68 2.5 W 13 19 7 10 - - 0.0
30/06:30pm 8.5 4.9 2.7 67 2.6 W 11 15 6 8 - - 0.0
30/06:00pm 9.0 5.4 2.8 65 2.8 W 11 15 6 8 - - 0.0
30/05:30pm 9.4 5.0 2.9 64 3.0 W 15 24 8 13 - - 0.0
30/05:00pm 9.8 5.5 3.1 63 3.1 W 15 22 8 12 - - 0.0
30/04:30pm 9.9 6.4 3.4 64 3.0 WNW 11 15 6 8 - - 0.0
30/04:00pm 10.2 6.4 3.7 64 3.0 W 13 19 7 10 - - 0.0
30/03:30pm 10.6 7.2 4.1 64 3.1 W 11 19 6 10 - - 0.0
30/03:00pm 12.0 9.1 4.5 60 3.6 W 9 13 5 7 - - 0.0
30/02:30pm 12.6 9.7 4.8 59 3.8 W 9 19 5 10 - - 0.0
30/02:00pm 12.3 8.4 5.2 62 3.5 W 15 24 8 13 - - 0.0
30/01:30pm 11.8 8.2 4.8 62 3.4 WNW 13 24 7 13 - - 0.0
30/01:00pm 11.3 6.4 4.1 61 3.4 W 19 28 10 15 - - 0.0
30/12:30pm 11.3 7.3 4.7 64 3.2 W 15 22 8 12 - - 0.0
30/12:00pm 10.8 7.0 3.8 62 3.3 WNW 13 20 7 11 - - 0.0
30/11:30am 10.6 7.2 4.1 64 3.1 WNW 11 19 6 10 - - 0.0
30/11:00am 10.0 6.9 3.5 64 3.0 WNW 9 19 5 10 - - 0.0
30/10:30am 9.7 6.5 3.0 63 3.1 WNW 9 19 5 10 - - 0.0
30/10:00am 9.3 6.0 2.4 62 3.1 NNW 9 19 5 10 - - 0.0
30/09:30am 8.6 5.2 2.0 63 2.9 NW 9 17 5 9 - - 0.0
30/09:00am 8.2 4.3 1.4 62 3.0 WNW 11 19 6 10 - - 0.0
30/08:30am 8.4 4.5 0.9 59 3.2 NW 11 17 6 9 - - 0.0
30/08:00am 7.8 3.9 1.4 64 2.8 WNW 11 17 6 9 - - 0.0
30/07:30am 7.9 3.7 1.5 64 2.8 WNW 13 20 7 11 - - 0.0
30/07:00am 7.4 2.8 1.3 65 2.6 NW 15 20 8 11 - - 0.0
30/06:30am 7.0 2.7 1.3 67 2.5 NW 13 19 7 10 - - 0.0
30/06:00am 5.4 2.0 1.7 77 1.6 NW 9 13 5 7 - - 0.0
30/05:30am 6.0 2.2 1.9 75 1.8 NW 11 15 6 8 - - 0.0
30/05:00am 5.9 1.8 2.0 76 1.7 NW 13 19 7 10 - - 0.0
30/04:30am 6.0 1.6 2.6 79 1.5 NNW 15 24 8 13 - - 0.0
30/04:13am 5.4 1.8 4.8 96 0.3 NNW 13 19 7 10 - - 0.0
30/04:05am 4.5 1.5 4.1 97 0.2 NW 9 13 5 7 - - 0.0
30/04:00am 4.3 1.8 3.9 97 0.2 NW 6 9 3 5 - - 0.0
30/03:44am 4.3 1.8 3.9 97 0.2 W 6 7 3 4 - - 0.0
30/03:35am 4.4 1.9 3.8 96 0.3 WNW 6 7 3 4 - - 0.0
30/03:30am 4.4 1.9 4.0 97 0.2 WNW 6 9 3 5 - - 0.0
30/03:10am 5.0 2.1 4.7 98 0.1 NNE 9 13 5 7 - - 0.0
30/03:00am 4.9 2.0 4.6 98 0.1 NNE 9 11 5 6 - - 0.0
30/02:46am 5.0 1.7 4.7 98 0.1 NNE 11 15 6 8 - - 0.0
30/02:30am 4.8 1.5 4.5 98 0.1 NNE 11 17 6 9 - - 0.0
30/02:00am 4.8 2.2 4.4 97 0.2 NE 7 11 4 6 - - 0.0
30/01:30am 5.5 2.7 5.2 98 0.1 NNE 9 13 5 7 - - 0.0
30/01:00am 5.8 3.5 5.5 98 0.1 NE 7 11 4 6 - - 0.0
30/12:30am 5.9 2.8 5.6 98 0.1 NE 11 15 6 8 - - 0.0
30/12:00am 6.1 3.4 5.8 98 0.1 NE 9 15 5 8 - - 0.0
 
Date/Time
EST
Tmp

°C
App
Tmp
°C
Dew
Point
°C
Rel
Hum
%
Delta-T

°C
Wind Press
QNH
hPa
Press
MSL
hPa
Rain
since
9 am
mm
Dir
 
Spd
km/h
Gust
km/h
Spd
kts
Gust
kts
29/11:30pm 6.1 3.4 5.8 98 0.1 ENE 9 17 5 9 - - 0.0
29/11:00pm 6.3 3.7 6.0 98 0.1 NE 9 17 5 9 - - 0.0
29/10:30pm 6.3 4.1 6.0 98 0.1 ENE 7 15 4 8 - - 0.0
29/10:00pm 6.3 3.3 6.0 98 0.1 NE 11 19 6 10 - - 0.0
29/09:30pm 6.1 3.4 5.7 97 0.2 ENE 9 13 5 7 - - 0.0
29/09:18pm 6.0 3.3 5.6 97 0.2 ENE 9 15 5 8 - - 0.0
29/09:13pm 6.0 2.9 5.6 97 0.2 NE 11 19 6 10 - - 0.0
29/09:00pm 6.1 3.4 5.7 97 0.2 ENE 9 19 5 10 - - 0.0
29/08:38pm 5.5 2.6 4.9 96 0.3 ENE 9 11 5 6 - - 0.0
29/08:30pm 5.4 2.9 4.7 95 0.3 ENE 7 11 4 6 - - 0.0
29/08:08pm 5.7 2.9 5.0 95 0.3 ENE 9 17 5 9 - - 0.0
29/08:05pm 5.8 3.0 5.2 96 0.3 ENE 9 13 5 7 - - 0.0
29/08:00pm 5.9 3.1 5.3 96 0.3 ENE 9 13 5 7 - - 0.0

Latest Capital City Observations: Canberra | Sydney | Melbourne | Brisbane | Adelaide | Perth | Hobart | Darwin

Other Formats:

Comma delimited format used in spreadsheet applications
http://www.bom.gov.au/fwo/IDN60901/IDN60901.94743.axf

JavaScript Object Notation format (JSON) in row-major order
http://www.bom.gov.au/fwo/IDN60901/IDN60901.94743.json